Time;durP1;ratioP1;P1;durP2;ratioP2;P2;SDS_P1;SDS_P2;PMS_P1;PMS_P2;Temp;Humidity;BMP_temperature;BMP_pressure;BME280_temperature;BME280_humidity;BME280_pressure;Samples;Min_cycle;Max_cycle;Signal;HPM_P1;HPM_P2
2023/09/13 00:00:03;;;;;;;21.45;19.50;;;;;;;;;;5281684;28;20013;-75
2023/09/13 00:02:35;;;;;;;21.90;19.60;;;;;;;;;;5281667;28;20100;-75
2023/09/13 00:05:06;;;;;;;21.33;19.40;;;;;;;;;;5281478;28;20115;-75
2023/09/13 00:07:37;;;;;;;21.85;19.83;;;;;;;;;;5281566;28;20032;-75
2023/09/13 00:10:09;;;;;;;20.75;18.85;;;;;;;;;;5282292;28;20084;-75
2023/09/13 00:12:40;;;;;;;21.27;19.23;;;;;;;;;;5280705;28;20051;-75
2023/09/13 00:15:11;;;;;;;20.20;18.23;;;;;;;;;;5281964;28;20107;-76
2023/09/13 00:17:42;;;;;;;21.17;19.15;;;;;;;;;;5281218;28;20263;-75
2023/09/13 00:20:14;;;;;;;21.17;19.17;;;;;;;;;;5281252;28;20032;-73
2023/09/13 00:22:45;;;;;;;21.80;19.60;;;;;;;;;;5281093;28;20758;-76
2023/09/13 00:25:16;;;;;;;20.63;18.60;;;;;;;;;;5282221;28;20040;-74
2023/09/13 00:27:47;;;;;;;20.90;18.83;;;;;;;;;;5280670;28;20055;-74
2023/09/13 00:30:19;;;;;;;21.05;19.05;;;;;;;;;;5281980;28;20270;-75
2023/09/13 00:32:50;;;;;;;22.83;20.73;;;;;;;;;;5281566;28;20032;-74
2023/09/13 00:35:21;;;;;;;22.90;20.73;;;;;;;;;;5281433;28;20028;-75
2023/09/13 00:37:52;;;;;;;23.50;21.10;;;;;;;;;;5281492;28;20101;-75
2023/09/13 00:40:23;;;;;;;23.13;20.83;;;;;;;;;;5280911;28;20270;-75
2023/09/13 00:42:55;;;;;;;22.83;20.55;;;;;;;;;;5281521;28;20013;-74
2023/09/13 00:45:29;;;;;;;24.38;21.88;;;;;;;;;;5281091;28;20421;-74
2023/09/13 00:48:01;;;;;;;23.27;20.90;;;;;;;;;;5280539;28;20158;-74
2023/09/13 00:50:32;;;;;;;22.20;19.98;;;;;;;;;;5280755;28;20098;-74
2023/09/13 00:53:04;;;;;;;23.90;21.50;;;;;;;;;;5281681;28;20375;-74
2023/09/13 00:55:35;;;;;;;25.35;22.90;;;;;;;;;;5280356;28;20379;-74
2023/09/13 00:58:06;;;;;;;25.85;23.25;;;;;;;;;;5281554;28;20020;-75
2023/09/13 01:00:38;;;;;;;27.73;24.95;;;;;;;;;;5280628;28;20082;-74
2023/09/13 01:03:09;;;;;;;27.15;24.40;;;;;;;;;;5280984;28;20370;-75
2023/09/13 01:05:40;;;;;;;28.45;25.55;;;;;;;;;;5280473;28;20028;-75
2023/09/13 01:08:12;;;;;;;29.33;26.25;;;;;;;;;;5281084;28;20044;-74
2023/09/13 01:10:43;;;;;;;26.20;23.33;;;;;;;;;;5279991;28;20101;-74
2023/09/13 01:13:14;;;;;;;41.83;27.85;;;;;;;;;;5281457;28;20101;-74
2023/09/13 01:16:04;;;;;;;28.08;25.27;;;;;;;;;;5280235;28;20467;-74
2023/09/13 01:18:38;;;;;;;26.20;23.50;;;;;;;;;;5281196;28;20095;-75
2023/09/13 01:21:29;;;;;;;28.77;25.75;;;;;;;;;;5281659;28;20012;-74
2023/09/13 01:24:16;;;;;;;31.08;26.90;;;;;;;;;;5280582;28;20098;-74
2023/09/13 01:26:50;;;;;;;33.28;29.65;;;;;;;;;;5280728;28;20099;-74
2023/09/13 01:29:22;;;;;;;30.05;26.83;;;;;;;;;;5280144;28;20059;-75
2023/09/13 01:31:54;;;;;;;31.85;28.40;;;;;;;;;;5280231;28;20153;-75
2023/09/13 01:34:25;;;;;;;32.10;28.77;;;;;;;;;;5284354;28;20032;-75
2023/09/13 01:36:56;;;;;;;34.00;28.13;;;;;;;;;;5283568;28;20024;-75
2023/09/13 01:39:27;;;;;;;31.88;28.52;;;;;;;;;;5284554;28;20275;-74
2023/09/13 01:42:03;;;;;;;30.48;25.77;;;;;;;;;;5284441;28;20012;-75
2023/09/13 01:44:35;;;;;;;30.50;26.80;;;;;;;;;;5283144;28;20379;-75
2023/09/13 01:47:07;;;;;;;35.95;32.05;;;;;;;;;;5284522;28;20028;-74
2023/09/13 01:49:39;;;;;;;37.22;33.30;;;;;;;;;;5284063;28;20024;-74
2023/09/13 01:52:10;;;;;;;36.35;31.33;;;;;;;;;;5283703;28;20020;-74
2023/09/13 01:54:41;;;;;;;38.73;31.60;;;;;;;;;;5282354;28;20071;-74
2023/09/13 01:57:12;;;;;;;37.23;33.23;;;;;;;;;;5284218;28;20676;-74
2023/09/13 01:59:44;;;;;;;40.43;34.53;;;;;;;;;;5282772;28;20281;-74
2023/09/13 02:02:15;;;;;;;40.60;35.85;;;;;;;;;;5284048;28;20255;-74
2023/09/13 02:04:46;;;;;;;44.27;35.50;;;;;;;;;;5282806;28;20428;-75
2023/09/13 02:07:17;;;;;;;36.42;31.38;;;;;;;;;;5283905;28;20301;-74
2023/09/13 02:09:48;;;;;;;43.63;37.67;;;;;;;;;;5283421;28;20056;-74
2023/09/13 02:12:20;;;;;;;43.60;38.63;;;;;;;;;;5283183;28;20103;-75
2023/09/13 02:14:51;;;;;;;44.73;39.87;;;;;;;;;;5283602;28;20013;-74
2023/09/13 02:17:22;;;;;;;46.25;40.00;;;;;;;;;;5284041;28;20661;-74
2023/09/13 02:19:53;;;;;;;48.80;40.10;;;;;;;;;;5282579;28;20023;-74
2023/09/13 02:22:24;;;;;;;46.23;39.47;;;;;;;;;;5283493;28;20090;-75
2023/09/13 02:24:56;;;;;;;41.30;36.00;;;;;;;;;;5283637;28;20294;-74
2023/09/13 02:27:28;;;;;;;45.30;37.33;;;;;;;;;;5282662;28;20255;-75
2023/09/13 02:29:59;;;;;;;47.72;39.83;;;;;;;;;;5283572;28;20679;-74
2023/09/13 02:32:31;;;;;;;51.05;42.72;;;;;;;;;;5283209;28;20060;-74
2023/09/13 02:35:02;;;;;;;54.28;45.90;;;;;;;;;;5282904;28;20103;-74
2023/09/13 02:37:33;;;;;;;54.45;47.28;;;;;;;;;;5283162;28;20048;-75
2023/09/13 02:40:06;;;;;;;48.70;39.30;;;;;;;;;;5282930;28;20112;-74
2023/09/13 02:42:37;;;;;;;67.22;48.97;;;;;;;;;;5283075;28;20291;-74
2023/09/13 02:45:09;;;;;;;60.65;47.95;;;;;;;;;;5282787;28;20056;-75
2023/09/13 02:47:40;;;;;;;60.38;49.47;;;;;;;;;;5282288;28;20017;-74
2023/09/13 02:50:11;;;;;;;60.75;48.08;;;;;;;;;;5283941;28;20016;-74
2023/09/13 02:52:43;;;;;;;55.33;44.90;;;;;;;;;;5284113;28;20158;-73
2023/09/13 02:55:14;;;;;;;56.08;47.20;;;;;;;;;;5284317;28;20270;-74
2023/09/13 02:57:45;;;;;;;53.42;45.35;;;;;;;;;;5284007;28;20104;-73
2023/09/13 03:00:16;;;;;;;55.85;45.58;;;;;;;;;;5284552;28;20109;-74
2023/09/13 03:02:48;;;;;;;54.63;44.55;;;;;;;;;;5283053;28;20103;-74
2023/09/13 03:05:19;;;;;;;55.58;44.15;;;;;;;;;;5284381;28;20029;-73
2023/09/13 03:07:51;;;;;;;43.43;36.70;;;;;;;;;;5282078;28;20487;-74
2023/09/13 03:10:22;;;;;;;52.45;43.78;;;;;;;;;;5283199;28;20266;-74
2023/09/13 03:12:53;;;;;;;54.57;45.20;;;;;;;;;;5283159;28;20475;-74
2023/09/13 03:15:25;;;;;;;49.80;42.30;;;;;;;;;;5282508;28;20353;-75
2023/09/13 03:17:56;;;;;;;53.55;44.67;;;;;;;;;;5283389;28;20009;-74
2023/09/13 03:20:27;;;;;;;53.38;45.55;;;;;;;;;;5284215;28;20125;-74
2023/09/13 03:22:58;;;;;;;53.28;44.53;;;;;;;;;;5283970;28;20247;-74
2023/09/13 03:25:32;;;;;;;54.35;44.97;;;;;;;;;;5283094;28;20051;-74
2023/09/13 03:28:03;;;;;;;58.97;48.38;;;;;;;;;;5283919;28;20039;-75
2023/09/13 03:30:34;;;;;;;58.75;45.00;;;;;;;;;;5281657;28;20016;-75
2023/09/13 03:33:05;;;;;;;56.87;48.87;;;;;;;;;;5282861;28;20499;-75
2023/09/13 03:35:37;;;;;;;51.20;39.37;;;;;;;;;;5282586;28;20267;-74
2023/09/13 03:38:08;;;;;;;47.83;38.33;;;;;;;;;;5281996;28;20300;-74
2023/09/13 03:40:40;;;;;;;57.03;45.20;;;;;;;;;;5282165;28;20278;-75
2023/09/13 03:43:11;;;;;;;56.08;44.92;;;;;;;;;;5282860;28;20261;-75
2023/09/13 03:45:42;;;;;;;55.83;44.47;;;;;;;;;;5283303;28;20118;-74
2023/09/13 03:48:13;;;;;;;58.80;44.20;;;;;;;;;;5283256;28;20267;-74
2023/09/13 03:50:45;;;;;;;59.30;47.53;;;;;;;;;;5281604;28;20270;-75
2023/09/13 03:53:16;;;;;;;58.05;47.20;;;;;;;;;;5283020;28;20439;-74
2023/09/13 03:55:47;;;;;;;52.70;43.00;;;;;;;;;;5281880;28;20095;-74
2023/09/13 03:58:19;;;;;;;56.30;43.35;;;;;;;;;;5281277;28;20028;-74
2023/09/13 04:00:50;;;;;;;58.10;44.90;;;;;;;;;;5281284;28;20491;-74
2023/09/13 04:03:21;;;;;;;58.17;45.22;;;;;;;;;;5282274;28;20459;-74
2023/09/13 04:05:53;;;;;;;57.08;46.25;;;;;;;;;;5280500;28;20040;-74
2023/09/13 04:08:24;;;;;;;60.53;45.42;;;;;;;;;;5281475;28;20040;-74
2023/09/13 04:10:55;;;;;;;51.63;42.33;;;;;;;;;;5281697;28;20017;-74
2023/09/13 04:13:27;;;;;;;53.58;41.47;;;;;;;;;;5281149;28;20028;-75
2023/09/13 04:16:02;;;;;;;55.40;45.47;;;;;;;;;;5281433;28;20016;-75
2023/09/13 04:18:33;;;;;;;53.70;42.53;;;;;;;;;;5280377;28;20274;-75
2023/09/13 04:21:05;;;;;;;51.87;44.10;;;;;;;;;;5281513;28;20021;-74
2023/09/13 04:23:36;;;;;;;51.28;40.05;;;;;;;;;;5280790;28;20696;-74
2023/09/13 04:26:07;;;;;;;53.13;44.07;;;;;;;;;;5280478;28;20058;-74
2023/09/13 04:28:38;;;;;;;47.38;40.70;;;;;;;;;;5281081;28;20765;-74
2023/09/13 04:31:10;;;;;;;53.25;41.67;;;;;;;;;;5281491;28;20016;-74
2023/09/13 04:33:44;;;;;;;52.63;41.83;;;;;;;;;;5280182;28;20035;-75
2023/09/13 04:36:15;;;;;;;54.53;42.42;;;;;;;;;;5281731;28;20275;-75
2023/09/13 04:38:47;;;;;;;50.30;40.25;;;;;;;;;;5281560;28;20458;-74
2023/09/13 04:41:18;;;;;;;50.88;40.40;;;;;;;;;;5281285;28;20020;-74
2023/09/13 04:43:49;;;;;;;44.85;38.47;;;;;;;;;;5281165;28;20090;-74
2023/09/13 04:46:21;;;;;;;49.97;39.57;;;;;;;;;;5280479;28;20021;-75
2023/09/13 04:48:52;;;;;;;51.10;40.60;;;;;;;;;;5279280;28;20361;-74
2023/09/13 04:51:23;;;;;;;49.97;42.23;;;;;;;;;;5280839;28;20259;-75
2023/09/13 04:53:54;;;;;;;47.50;40.92;;;;;;;;;;5280132;28;20312;-75
2023/09/13 04:56:25;;;;;;;45.13;34.47;;;;;;;;;;5281051;28;20048;-75
2023/09/13 04:58:56;;;;;;;47.50;37.43;;;;;;;;;;5280746;28;20278;-75
2023/09/13 05:01:28;;;;;;;50.50;41.10;;;;;;;;;;5280108;28;20266;-74
2023/09/13 05:03:59;;;;;;;47.47;40.27;;;;;;;;;;5280813;28;20672;-75
2023/09/13 05:06:30;;;;;;;44.20;37.42;;;;;;;;;;5280698;28;20342;-76
2023/09/13 05:09:01;;;;;;;45.27;36.27;;;;;;;;;;5283773;28;20045;-75
2023/09/13 05:11:33;;;;;;;44.00;37.33;;;;;;;;;;5284671;28;20266;-75
2023/09/13 05:14:11;;;;;;;47.20;37.97;;;;;;;;;;5285299;28;20443;-75
2023/09/13 05:16:42;;;;;;;51.17;38.55;;;;;;;;;;5284004;28;20729;-74
2023/09/13 05:19:13;;;;;;;46.00;38.33;;;;;;;;;;5285655;28;20016;-75
2023/09/13 05:21:44;;;;;;;43.90;37.67;;;;;;;;;;5283495;28;20696;-75
2023/09/13 05:24:16;;;;;;;45.55;37.60;;;;;;;;;;5284882;28;20282;-74
2023/09/13 05:26:47;;;;;;;38.47;32.75;;;;;;;;;;5284839;28;20028;-75
2023/09/13 05:29:18;;;;;;;40.88;35.47;;;;;;;;;;5284479;28;20020;-74
2023/09/13 05:31:49;;;;;;;45.93;35.17;;;;;;;;;;5284465;28;20074;-75
2023/09/13 05:34:20;;;;;;;41.80;35.38;;;;;;;;;;5284860;28;20584;-74
2023/09/13 05:36:52;;;;;;;47.53;38.78;;;;;;;;;;5283485;28;20012;-72
2023/09/13 05:39:23;;;;;;;40.53;35.47;;;;;;;;;;5284971;28;20032;-74
2023/09/13 05:41:55;;;;;;;48.95;38.70;;;;;;;;;;5284488;28;20265;-74
2023/09/13 05:44:27;;;;;;;38.55;31.33;;;;;;;;;;5283664;28;20108;-72
2023/09/13 05:46:58;;;;;;;48.35;38.65;;;;;;;;;;5284622;28;20100;-72
2023/09/13 05:49:29;;;;;;;41.58;36.85;;;;;;;;;;5284277;28;20099;-73
2023/09/13 05:52:01;;;;;;;41.63;37.13;;;;;;;;;;5283591;28;20103;-72
2023/09/13 05:54:32;;;;;;;44.40;37.33;;;;;;;;;;5283908;28;20104;-74
2023/09/13 05:57:03;;;;;;;41.13;33.90;;;;;;;;;;5283498;28;20274;-74
2023/09/13 05:59:39;;;;;;;41.72;34.10;;;;;;;;;;5283981;28;20266;-74
2023/09/13 06:02:10;;;;;;;41.50;36.20;;;;;;;;;;5284628;28;20020;-73
2023/09/13 06:04:42;;;;;;;42.85;35.20;;;;;;;;;;5283231;28;20071;-72
2023/09/13 06:07:13;;;;;;;40.10;33.60;;;;;;;;;;5284547;28;20017;-73
2023/09/13 06:09:45;;;;;;;42.53;35.40;;;;;;;;;;5283558;28;20052;-73
2023/09/13 06:12:16;;;;;;;39.63;32.85;;;;;;;;;;5283755;28;20016;-73
2023/09/13 06:14:51;;;;;;;36.60;31.92;;;;;;;;;;5283727;28;20028;-74
2023/09/13 06:17:22;;;;;;;35.92;30.08;;;;;;;;;;5284038;28;20066;-73
2023/09/13 06:19:54;;;;;;;38.85;32.10;;;;;;;;;;5281292;28;20024;-73
2023/09/13 06:22:25;;;;;;;35.50;30.70;;;;;;;;;;5283698;28;20093;-73
2023/09/13 06:24:56;;;;;;;38.97;33.30;;;;;;;;;;5283011;28;20028;-73
2023/09/13 06:27:27;;;;;;;37.87;31.43;;;;;;;;;;5283858;28;20312;-74
2023/09/13 06:29:58;;;;;;;36.20;30.73;;;;;;;;;;5283446;28;20366;-73
2023/09/13 06:32:30;;;;;;;36.05;29.17;;;;;;;;;;5282468;28;20398;-73
2023/09/13 06:35:02;;;;;;;31.17;27.38;;;;;;;;;;5283850;28;20020;-73
2023/09/13 06:37:33;;;;;;;34.85;29.65;;;;;;;;;;5283303;28;20081;-74
2023/09/13 06:40:05;;;;;;;36.90;32.90;;;;;;;;;;5282834;28;20067;-73
2023/09/13 06:42:36;;;;;;;35.38;29.10;;;;;;;;;;5283100;28;20025;-74
2023/09/13 06:45:07;;;;;;;32.73;26.53;;;;;;;;;;5283453;28;20476;-74
2023/09/13 06:47:39;;;;;;;35.97;29.27;;;;;;;;;;5282415;28;20294;-73
2023/09/13 06:50:10;;;;;;;34.78;29.13;;;;;;;;;;5283914;28;20174;-74
2023/09/13 06:52:41;;;;;;;35.87;30.77;;;;;;;;;;5283081;28;20016;-74
2023/09/13 06:55:12;;;;;;;30.75;26.58;;;;;;;;;;5282930;28;20270;-73
2023/09/13 06:57:43;;;;;;;36.70;26.87;;;;;;;;;;5282981;28;20017;-73
2023/09/13 07:00:16;;;;;;;34.13;30.10;;;;;;;;;;5282648;28;20308;-74
2023/09/13 07:02:47;;;;;;;29.98;25.23;;;;;;;;;;5282597;28;20259;-74
2023/09/13 07:05:19;;;;;;;34.05;29.17;;;;;;;;;;5283354;28;20029;-73
2023/09/13 07:07:50;;;;;;;36.00;30.43;;;;;;;;;;5281621;28;20076;-73
2023/09/13 07:10:21;;;;;;;35.20;29.52;;;;;;;;;;5283196;28;20773;-74
2023/09/13 07:12:52;;;;;;;40.67;32.40;;;;;;;;;;5282504;28;20016;-73
2023/09/13 07:15:25;;;;;;;32.85;26.40;;;;;;;;;;5282159;28;20263;-74
2023/09/13 07:17:57;;;;;;;35.65;31.77;;;;;;;;;;5282565;28;20108;-74
2023/09/13 07:20:28;;;;;;;40.47;31.15;;;;;;;;;;5282363;28;20087;-74
2023/09/13 07:23:00;;;;;;;38.70;31.87;;;;;;;;;;5281492;28;20090;-73
2023/09/13 07:25:32;;;;;;;36.58;30.00;;;;;;;;;;5282314;28;20687;-74
2023/09/13 07:28:03;;;;;;;39.30;31.50;;;;;;;;;;5281836;28;20013;-74
2023/09/13 07:30:34;;;;;;;37.80;30.33;;;;;;;;;;5281606;28;20301;-73
2023/09/13 07:33:05;;;;;;;33.42;29.35;;;;;;;;;;5282231;28;20009;-74
2023/09/13 07:35:37;;;;;;;37.33;27.63;;;;;;;;;;5281231;28;20095;-74
2023/09/13 07:38:10;;;;;;;33.33;27.65;;;;;;;;;;5282462;28;20267;-74
2023/09/13 07:40:41;;;;;;;35.42;29.00;;;;;;;;;;5282111;28;20428;-74
2023/09/13 07:43:12;;;;;;;32.30;28.75;;;;;;;;;;5281926;28;20070;-74
2023/09/13 07:45:45;;;;;;;34.90;28.77;;;;;;;;;;5281886;28;20031;-73
2023/09/13 07:48:16;;;;;;;35.10;27.45;;;;;;;;;;5282405;28;20309;-74
2023/09/13 07:50:47;;;;;;;30.42;26.60;;;;;;;;;;5280893;28;20017;-73
2023/09/13 07:53:18;;;;;;;33.50;27.42;;;;;;;;;;5281998;28;20066;-73
2023/09/13 07:55:50;;;;;;;21.20;16.77;;;;;;;;;;5281690;28;20090;-73
2023/09/13 07:58:21;;;;;;;18.48;8.70;;;;;;;;;;5281692;28;20673;-73
2023/09/13 08:00:52;;;;;;;6.97;3.70;;;;;;;;;;5281519;28;20099;-73
2023/09/13 08:03:23;;;;;;;4.05;2.85;;;;;;;;;;5280761;28;20111;-73
2023/09/13 08:05:56;;;;;;;3.45;1.42;;;;;;;;;;5281675;28;20024;-73
2023/09/13 08:08:28;;;;;;;2.17;0.80;;;;;;;;;;5281460;28;20040;-74
2023/09/13 08:10:59;;;;;;;120.28;14.25;;;;;;;;;;5281256;28;20046;-73
2023/09/13 08:13:30;;;;;;;39.22;5.88;;;;;;;;;;5281120;28;20066;-74
2023/09/13 08:16:02;;;;;;;2.65;0.50;;;;;;;;;;5281665;28;20355;-76
2023/09/13 08:18:34;;;;;;;1.02;0.40;;;;;;;;;;5280145;28;20013;-76
2023/09/13 08:21:05;;;;;;;49.88;7.50;;;;;;;;;;5281696;28;20099;-76
2023/09/13 08:23:37;;;;;;;4.43;0.50;;;;;;;;;;5281426;28;20092;-75
2023/09/13 08:26:08;;;;;;;1.85;0.20;;;;;;;;;;5280993;28;20036;-76
2023/09/13 08:28:39;;;;;;;192.57;23.33;;;;;;;;;;5280866;28;20147;-76
2023/09/13 08:31:10;;;;;;;14.93;2.00;;;;;;;;;;5280359;28;20842;-77
2023/09/13 08:33:42;;;;;;;82.07;11.50;;;;;;;;;;5280183;28;20016;-75
2023/09/13 08:36:13;;;;;;;8.38;0.90;;;;;;;;;;5281397;28;20529;-76
2023/09/13 08:38:44;;;;;;;15.63;2.40;;;;;;;;;;5280070;28;20538;-75
2023/09/13 08:41:15;;;;;;;2.15;0.40;;;;;;;;;;5280239;28;20048;-77
2023/09/13 08:43:47;;;;;;;2.35;0.10;;;;;;;;;;5280318;28;20029;-75
2023/09/13 08:46:19;;;;;;;0.28;0.10;;;;;;;;;;5281164;28;20067;-75
2023/09/13 08:48:51;;;;;;;0.50;0.20;;;;;;;;;;5281134;28;20078;-77
2023/09/13 08:51:22;;;;;;;0.65;0.20;;;;;;;;;;5281438;28;20112;-76
2023/09/13 08:53:53;;;;;;;0.55;0.17;;;;;;;;;;5280226;28;20012;-77
2023/09/13 08:56:25;;;;;;;1.65;0.10;;;;;;;;;;5281204;28;20039;-77
2023/09/13 08:58:56;;;;;;;1.25;0.10;;;;;;;;;;5281364;28;20020;-76
2023/09/13 09:01:28;;;;;;;0.82;0.20;;;;;;;;;;5280799;28;20016;-77
2023/09/13 09:04:01;;;;;;;0.55;0.20;;;;;;;;;;5281168;28;20376;-78
2023/09/13 09:06:32;;;;;;;0.93;0.20;;;;;;;;;;5279638;28;20028;-77
2023/09/13 09:09:07;;;;;;;0.50;0.10;;;;;;;;;;5281172;28;20040;-77
2023/09/13 09:11:41;;;;;;;0.63;0.13;;;;;;;;;;5280726;28;20024;-77
2023/09/13 09:14:14;;;;;;;0.98;0.20;;;;;;;;;;5280690;28;20024;-77
2023/09/13 09:16:49;;;;;;;2.70;0.30;;;;;;;;;;5280594;28;20356;-77
2023/09/13 09:19:20;;;;;;;1.80;0.20;;;;;;;;;;5280887;28;20051;-76
2023/09/13 09:21:52;;;;;;;0.40;0.10;;;;;;;;;;5280043;28;20352;-77
2023/09/13 09:24:23;;;;;;;0.73;0.20;;;;;;;;;;5281003;28;20028;-77
2023/09/13 09:26:54;;;;;;;1.08;0.10;;;;;;;;;;5279507;28;20028;-77
2023/09/13 09:29:42;;;;;;;0.68;0.10;;;;;;;;;;5279825;28;20047;-78
2023/09/13 09:32:14;;;;;;;1.00;0.20;;;;;;;;;;5281065;28;20032;-77
2023/09/13 09:34:45;;;;;;;1.08;0.20;;;;;;;;;;5280070;28;20021;-77
2023/09/13 09:37:18;;;;;;;1.83;0.20;;;;;;;;;;5281166;28;20031;-77
2023/09/13 09:39:49;;;;;;;1.45;0.30;;;;;;;;;;5280449;28;20262;-77
2023/09/13 09:42:20;;;;;;;0.77;0.20;;;;;;;;;;5280455;28;20093;-76
2023/09/13 09:44:51;;;;;;;1.17;0.22;;;;;;;;;;5280166;28;20024;-76
2023/09/13 09:47:23;;;;;;;1.55;0.20;;;;;;;;;;5281210;28;20456;-76
2023/09/13 09:49:54;;;;;;;0.80;0.25;;;;;;;;;;5279920;28;20021;-76
2023/09/13 09:52:25;;;;;;;2.90;0.20;;;;;;;;;;5280627;28;20055;-76
2023/09/13 09:54:56;;;;;;;0.90;0.20;;;;;;;;;;5283691;28;20546;-77
2023/09/13 09:57:28;;;;;;;0.77;0.20;;;;;;;;;;5283879;28;20027;-77
2023/09/13 09:59:59;;;;;;;0.73;0.20;;;;;;;;;;5284215;28;20020;-78
2023/09/13 10:02:31;;;;;;;1.25;0.20;;;;;;;;;;5283662;28;20021;-77
2023/09/13 10:05:03;;;;;;;0.35;0.10;;;;;;;;;;5283630;28;20450;-78
2023/09/13 10:07:48;;;;;;;0.50;0.20;;;;;;;;;;5284213;28;20099;-75
2023/09/13 10:10:29;;;;;;;0.75;0.20;;;;;;;;;;5283646;28;20115;-78
2023/09/13 10:13:01;;;;;;;0.70;0.15;;;;;;;;;;5284604;28;20161;-79
2023/09/13 10:15:32;;;;;;;1.20;0.30;;;;;;;;;;5283656;28;20051;-78
2023/09/13 10:18:05;;;;;;;1.60;0.20;;;;;;;;;;5283760;28;20476;-78
2023/09/13 10:20:39;;;;;;;1.58;0.30;;;;;;;;;;5283915;28;20017;-79
2023/09/13 10:23:11;;;;;;;2.10;0.30;;;;;;;;;;5284171;28;20028;-77
2023/09/13 10:25:43;;;;;;;0.95;0.30;;;;;;;;;;5282649;28;20551;-77
2023/09/13 10:28:16;;;;;;;1.20;0.28;;;;;;;;;;5283886;28;20452;-77
2023/09/13 10:30:49;;;;;;;1.77;0.20;;;;;;;;;;5283451;28;20029;-77
2023/09/13 10:33:21;;;;;;;0.90;0.20;;;;;;;;;;5283496;28;20021;-77
2023/09/13 10:35:58;;;;;;;0.73;0.20;;;;;;;;;;5283343;28;20549;-78
2023/09/13 10:38:35;;;;;;;0.93;0.20;;;;;;;;;;5282715;28;20100;-79
2023/09/13 10:41:07;;;;;;;1.90;0.20;;;;;;;;;;5284058;28;20051;-78
2023/09/13 10:43:39;;;;;;;1.95;0.30;;;;;;;;;;5269126;28;20020;-77
2023/09/13 10:46:10;;;;;;;0.85;0.20;;;;;;;;;;5270147;28;20518;-78
2023/09/13 10:48:42;;;;;;;1.63;0.20;;;;;;;;;;5262182;28;20028;-78
2023/09/13 10:51:15;;;;;;;3.22;0.20;;;;;;;;;;5262890;28;20388;-79
2023/09/13 10:53:47;;;;;;;0.73;0.17;;;;;;;;;;5261570;28;20021;-80
2023/09/13 10:56:19;;;;;;;0.98;0.30;;;;;;;;;;5262938;28;20024;-78
2023/09/13 10:58:51;;;;;;;0.90;0.20;;;;;;;;;;5273431;28;20047;-78
2023/09/13 11:01:22;;;;;;;0.75;0.20;;;;;;;;;;5282178;28;20020;-79
2023/09/13 11:03:54;;;;;;;0.45;0.20;;;;;;;;;;5282484;28;20027;-78
2023/09/13 11:06:26;;;;;;;1.67;0.20;;;;;;;;;;5281268;28;20625;-78
2023/09/13 11:09:09;;;;;;;0.77;0.20;;;;;;;;;;5265229;28;20068;-79
2023/09/13 11:11:48;;;;;;;1.70;0.40;;;;;;;;;;5261815;28;20211;-78
2023/09/13 11:14:27;;;;;;;1.48;0.30;;;;;;;;;;5261238;28;20467;-78
2023/09/13 11:17:37;;;;;;;1.05;0.30;;;;;;;;;;5261849;28;20151;-79
2023/09/13 11:20:21;;;;;;;1.98;0.20;;;;;;;;;;5260027;28;20061;-78
2023/09/13 11:23:12;;;;;;;0.73;0.20;;;;;;;;;;5261184;28;20027;-79
2023/09/13 11:25:50;;;;;;;0.50;0.20;;;;;;;;;;5272062;28;20119;-79
2023/09/13 11:28:29;;;;;;;1.25;0.30;;;;;;;;;;5281372;28;20016;-78
2023/09/13 11:31:01;;;;;;;1.90;0.30;;;;;;;;;;5282471;28;20139;-78
2023/09/13 11:33:37;;;;;;;0.88;0.20;;;;;;;;;;5281994;28;20024;-79
2023/09/13 11:36:09;;;;;;;1.38;0.20;;;;;;;;;;5282075;28;20021;-78
2023/09/13 11:38:41;;;;;;;1.30;0.25;;;;;;;;;;5281982;28;20082;-79
2023/09/13 11:41:17;;;;;;;1.30;0.20;;;;;;;;;;5281847;28;20023;-79
2023/09/13 11:43:48;;;;;;;1.73;0.40;;;;;;;;;;5281566;28;20379;-79
2023/09/13 11:46:20;;;;;;;2.33;0.20;;;;;;;;;;5279159;28;20024;-78
2023/09/13 11:48:52;;;;;;;1.02;0.20;;;;;;;;;;5280860;28;20025;-78
2023/09/13 11:51:23;;;;;;;2.15;0.30;;;;;;;;;;5281858;28;20090;-79
2023/09/13 11:53:54;;;;;;;1.35;0.28;;;;;;;;;;5282139;28;20535;-79
2023/09/13 11:56:31;;;;;;;0.50;0.20;;;;;;;;;;5284549;27;20513;-79
2023/09/13 11:59:02;;;;;;;1.00;0.30;;;;;;;;;;5282328;28;20270;-78
2023/09/13 12:01:34;;;;;;;1.83;0.20;;;;;;;;;;5281939;28;20427;-78
2023/09/13 12:04:07;;;;;;;0.80;0.30;;;;;;;;;;5281651;28;20024;-79
2023/09/13 12:06:43;;;;;;;26.05;1.85;;;;;;;;;;5282011;28;20263;-78
2023/09/13 12:09:15;;;;;;;9.82;1.40;;;;;;;;;;5282005;28;20044;-78
2023/09/13 12:11:50;;;;;;;2.50;0.50;;;;;;;;;;5279570;28;20024;-77
2023/09/13 12:14:22;;;;;;;2.60;0.40;;;;;;;;;;5282187;28;20364;-77
2023/09/13 12:16:53;;;;;;;3.40;0.30;;;;;;;;;;5279735;28;20091;-77
2023/09/13 12:19:27;;;;;;;1.83;0.40;;;;;;;;;;5281804;28;20073;-75
2023/09/13 12:21:59;;;;;;;1.65;0.32;;;;;;;;;;5281458;28;20084;-76
2023/09/13 12:24:48;;;;;;;2.83;0.40;;;;;;;;;;5280758;28;20482;-76
2023/09/13 12:27:19;;;;;;;10.38;0.80;;;;;;;;;;5282148;28;20047;-78
2023/09/13 12:29:51;;;;;;;3.58;0.55;;;;;;;;;;5281774;28;20020;-76
2023/09/13 12:32:22;;;;;;;2.42;0.55;;;;;;;;;;5281519;28;20116;-76
2023/09/13 12:34:54;;;;;;;2.95;1.05;;;;;;;;;;5281547;28;20467;-75
2023/09/13 12:37:25;;;;;;;2.63;0.55;;;;;;;;;;5281737;28;20051;-75
2023/09/13 12:39:56;;;;;;;2.63;0.53;;;;;;;;;;5281074;28;20378;-75
2023/09/13 12:42:29;;;;;;;2.60;0.50;;;;;;;;;;5281270;28;20266;-76
2023/09/13 12:45:01;;;;;;;5.82;0.73;;;;;;;;;;5280800;28;20425;-76
2023/09/13 12:47:32;;;;;;;2.03;0.50;;;;;;;;;;5281027;28;20021;-75
2023/09/13 12:50:06;;;;;;;2.90;0.40;;;;;;;;;;5280474;28;20059;-76
2023/09/13 12:52:37;;;;;;;1.90;0.43;;;;;;;;;;5280492;28;20027;-79
2023/09/13 12:55:08;;;;;;;2.30;0.70;;;;;;;;;;5281750;28;20021;-77
2023/09/13 12:57:39;;;;;;;1.67;0.50;;;;;;;;;;5281305;28;20726;-77
2023/09/13 13:00:14;;;;;;;3.92;0.60;;;;;;;;;;5281236;28;20025;-77
2023/09/13 13:02:53;;;;;;;1.88;0.57;;;;;;;;;;5281535;28;20016;-77
2023/09/13 13:05:24;;;;;;;2.60;0.50;;;;;;;;;;5281356;28;20028;-78
2023/09/13 13:08:02;;;;;;;1.37;0.30;;;;;;;;;;5280480;28;20403;-78
2023/09/13 13:10:50;;;;;;;3.28;0.68;;;;;;;;;;5280964;28;20262;-78
2023/09/13 13:13:23;;;;;;;3.20;0.50;;;;;;;;;;5280631;28;20139;-78
2023/09/13 13:15:54;;;;;;;2.88;0.90;;;;;;;;;;5281062;28;20035;-79
2023/09/13 13:18:25;;;;;;;4.07;0.60;;;;;;;;;;5281113;28;20013;-78
2023/09/13 13:20:56;;;;;;;2.08;0.50;;;;;;;;;;5280268;28;20391;-79
2023/09/13 13:23:27;;;;;;;1.65;0.55;;;;;;;;;;5281414;28;20099;-78
2023/09/13 13:25:59;;;;;;;1.30;0.40;;;;;;;;;;5281094;28;20108;-78
2023/09/13 13:28:30;;;;;;;2.33;0.50;;;;;;;;;;5280850;28;20335;-78
2023/09/13 13:31:01;;;;;;;2.50;0.47;;;;;;;;;;5285368;28;20301;-79
2023/09/13 13:33:33;;;;;;;1.77;0.50;;;;;;;;;;5284697;28;20045;-79
2023/09/13 13:36:05;;;;;;;1.63;0.38;;;;;;;;;;5284639;28;20016;-79
2023/09/13 13:38:36;;;;;;;1.60;0.32;;;;;;;;;;5284438;28;20055;-81
2023/09/13 13:41:09;;;;;;;2.67;0.35;;;;;;;;;;5284527;28;20116;-80
2023/09/13 13:43:40;;;;;;;1.60;0.30;;;;;;;;;;5284458;28;20024;-79
2023/09/13 13:46:12;;;;;;;1.88;0.40;;;;;;;;;;5284973;28;20043;-79
2023/09/13 13:48:44;;;;;;;2.85;0.30;;;;;;;;;;5283786;28;20021;-79
2023/09/13 13:51:15;;;;;;;3.47;0.50;;;;;;;;;;5284908;28;20050;-79
2023/09/13 13:53:47;;;;;;;4.13;0.77;;;;;;;;;;5284252;28;20371;-80
2023/09/13 13:56:18;;;;;;;2.30;0.40;;;;;;;;;;5284841;27;20036;-80
2023/09/13 13:58:50;;;;;;;2.87;0.40;;;;;;;;;;5284385;28;20096;-80
2023/09/13 14:01:22;;;;;;;2.40;0.57;;;;;;;;;;5284993;28;20753;-79
2023/09/13 14:03:53;;;;;;;2.17;0.63;;;;;;;;;;5283427;28;20023;-79
2023/09/13 14:06:24;;;;;;;3.38;0.60;;;;;;;;;;5284573;28;20028;-78
2023/09/13 14:08:55;;;;;;;3.50;0.68;;;;;;;;;;5286078;28;20403;-78
2023/09/13 14:11:28;;;;;;;3.03;0.68;;;;;;;;;;5285037;28;20066;-80
2023/09/13 14:13:59;;;;;;;3.83;0.50;;;;;;;;;;5285418;28;20104;-76
2023/09/13 14:16:30;;;;;;;3.37;0.67;;;;;;;;;;5283595;28;20104;-78
2023/09/13 14:19:02;;;;;;;3.10;0.50;;;;;;;;;;5284549;28;20271;-74
2023/09/13 14:21:33;;;;;;;4.22;0.50;;;;;;;;;;5283953;28;20016;-80
2023/09/13 14:24:04;;;;;;;3.50;0.67;;;;;;;;;;5284009;28;20433;-81
2023/09/13 14:26:36;;;;;;;2.33;0.73;;;;;;;;;;5283933;28;20286;-81
2023/09/13 14:29:07;;;;;;;2.67;0.50;;;;;;;;;;5284459;28;20096;-81
2023/09/13 14:31:38;;;;;;;1.33;0.35;;;;;;;;;;5283282;28;20629;-80
2023/09/13 14:34:10;;;;;;;3.38;0.50;;;;;;;;;;5284615;28;20047;-81
2023/09/13 14:36:41;;;;;;;3.25;0.60;;;;;;;;;;5284098;28;20352;-81
2023/09/13 14:39:12;;;;;;;3.55;0.47;;;;;;;;;;5283680;28;20017;-81
2023/09/13 14:41:50;;;;;;;2.83;0.40;;;;;;;;;;5282806;28;20032;-80
2023/09/13 14:44:21;;;;;;;3.53;0.50;;;;;;;;;;5282199;28;20024;-80
2023/09/13 14:46:52;;;;;;;2.78;0.70;;;;;;;;;;5283739;28;20028;-81
2023/09/13 14:49:24;;;;;;;2.50;0.50;;;;;;;;;;5283817;28;20044;-80
2023/09/13 14:51:55;;;;;;;3.60;0.40;;;;;;;;;;5282735;28;20020;-80
2023/09/13 14:54:26;;;;;;;4.07;0.50;;;;;;;;;;5283658;28;20099;-80
2023/09/13 14:56:58;;;;;;;3.13;0.40;;;;;;;;;;5283715;28;20016;-80